createdAt,value
2022-12-05T00:00:17.440Z,50.75
2022-12-05T00:01:42.725Z,51.20
2022-12-05T00:03:06.056Z,48.53
2022-12-05T00:04:27.520Z,48.45
2022-12-05T00:05:49.738Z,51.47
2022-12-05T00:07:13.721Z,49.50
2022-12-05T00:08:34.862Z,48.75
2022-12-05T00:09:57.074Z,52.70
2022-12-05T00:11:20.484Z,51.67
2022-12-05T00:12:42.748Z,49.78
2022-12-05T00:14:05.258Z,47.58
2022-12-05T00:15:27.317Z,50.92
2022-12-05T00:18:10.471Z,39.90
2022-12-05T00:19:32.542Z,49.30
2022-12-05T00:20:53.497Z,55.67
2022-12-05T00:22:17.164Z,56.50
2022-12-05T00:23:37.970Z,51.67
2022-12-05T00:24:59.754Z,50.58
2022-12-05T00:26:21.074Z,53.30
2022-12-05T00:27:42.847Z,53.17
2022-12-05T00:29:04.486Z,53.38
2022-12-05T00:30:29.383Z,54.85
2022-12-05T00:31:51.577Z,58.55
2022-12-05T00:34:34.564Z,52.92
2022-12-05T00:35:57.788Z,56.50
2022-12-05T00:37:20.935Z,56.50
2022-12-05T00:38:45.568Z,58.95
2022-12-05T00:40:08.864Z,60.05
2022-12-05T00:41:30.919Z,56.95
2022-12-05T00:42:55.665Z,57.20
2022-12-05T00:44:16.574Z,59.33
2022-12-05T00:45:38.479Z,61.22
2022-12-05T00:46:59.638Z,59.03
2022-12-05T00:48:21.820Z,57.50
2022-12-05T00:49:45.001Z,57.97
2022-12-05T00:51:09.145Z,58.63
2022-12-05T00:52:32.671Z,55.33
2022-12-05T00:53:54.006Z,54.85
2022-12-05T00:55:15.745Z,54.33
2022-12-05T00:57:58.246Z,53.25
2022-12-05T00:59:21.423Z,52.38
2022-12-05T01:00:42.282Z,54.53
2022-12-05T01:02:04.168Z,53.33
2022-12-05T01:04:46.895Z,53.55
2022-12-05T01:06:12.396Z,57.10
2022-12-05T01:07:34.708Z,55.35
2022-12-05T01:08:57.859Z,54.92
2022-12-05T01:10:22.167Z,54.75
2022-12-05T01:11:44.124Z,55.30
2022-12-05T01:13:06.341Z,55.63
2022-12-05T01:14:29.090Z,54.88
2022-12-05T01:15:50.393Z,53.67
2022-12-05T01:17:12.478Z,53.45
2022-12-05T01:18:33.720Z,55.95
2022-12-05T01:19:55.826Z,56.15
2022-12-05T01:21:17.506Z,52.63
2022-12-05T01:22:40.929Z,52.83
2022-12-05T01:24:02.240Z,50.80
2022-12-05T01:25:24.363Z,51.03
2022-12-05T01:28:07.185Z,49.65
2022-12-05T01:29:29.454Z,50.72
2022-12-05T01:30:51.034Z,51.38
2022-12-05T01:32:13.248Z,53.05
2022-12-05T01:33:34.877Z,52.00
2022-12-05T01:34:56.837Z,53.85
2022-12-05T01:37:41.498Z,46.88
2022-12-05T01:39:11.933Z,48.33
2022-12-05T01:40:36.014Z,49.78
2022-12-05T01:41:57.906Z,50.53
2022-12-05T01:43:19.821Z,46.65
2022-12-05T01:46:21.784Z,46.95
2022-12-05T01:47:47.259Z,48.88
2022-12-05T01:49:13.667Z,48.90
2022-12-05T01:50:35.711Z,49.35
2022-12-05T01:52:01.793Z,51.10
2022-12-05T01:53:25.428Z,48.90
2022-12-05T01:54:48.804Z,49.05
2022-12-05T01:56:11.106Z,45.25
2022-12-05T01:57:33.323Z,48.88
2022-12-05T01:58:57.147Z,49.33
2022-12-05T02:00:20.671Z,49.38
2022-12-05T02:01:43.033Z,49.28
2022-12-05T02:03:08.520Z,50.42
2022-12-05T02:04:30.879Z,48.97
2022-12-05T02:05:55.066Z,56.65
2022-12-05T02:07:16.290Z,54.30
2022-12-05T02:08:40.849Z,54.20
2022-12-05T02:10:01.768Z,58.42
2022-12-05T02:11:26.405Z,57.00
2022-12-05T02:12:47.661Z,55.47
2022-12-05T02:14:27.295Z,57.00
2022-12-05T02:15:56.977Z,59.17
2022-12-05T02:17:31.993Z,56.35
2022-12-05T02:19:05.179Z,56.33
2022-12-05T02:20:37.166Z,55.88
2022-12-05T02:22:38.451Z,52.90
2022-12-05T02:24:28.960Z,53.53
2022-12-05T02:26:35.400Z,51.90
2022-12-05T02:28:30.146Z,50.83
2022-12-05T02:30:03.557Z,54.15
2022-12-05T02:31:32.604Z,53.53
2022-12-05T02:33:08.225Z,54.13
2022-12-05T02:34:34.493Z,51.53
2022-12-05T02:36:05.400Z,53.20
2022-12-05T02:37:30.126Z,51.25
2022-12-05T02:39:00.881Z,53.90
2022-12-05T02:40:28.624Z,52.92
2022-12-05T02:41:55.906Z,54.38
2022-12-05T02:43:22.498Z,55.58
2022-12-05T02:44:48.848Z,52.70
2022-12-05T02:46:16.384Z,55.78
2022-12-05T02:47:43.525Z,55.95
2022-12-05T02:49:11.685Z,56.53
2022-12-05T02:50:38.586Z,55.22
2022-12-05T02:52:06.339Z,55.28
2022-12-05T02:53:31.105Z,55.78
2022-12-05T02:54:56.304Z,54.65
2022-12-05T02:56:18.848Z,54.80
2022-12-05T02:57:46.958Z,55.13
2022-12-05T02:59:09.195Z,53.13
2022-12-05T03:00:31.837Z,52.28
2022-12-05T03:01:55.740Z,55.80
2022-12-05T03:03:19.754Z,53.55
2022-12-05T03:04:41.762Z,52.35
2022-12-05T03:07:30.773Z,51.38
2022-12-05T03:08:57.623Z,50.30
2022-12-05T03:10:22.386Z,50.38
2022-12-05T03:11:50.124Z,48.83
2022-12-05T03:13:16.237Z,50.03
2022-12-05T03:14:47.530Z,51.55
2022-12-05T03:16:16.213Z,50.03
2022-12-05T03:17:57.267Z,50.10
2022-12-05T03:19:22.690Z,49.97
2022-12-05T03:20:48.520Z,49.22
2022-12-05T03:22:16.707Z,50.40
2022-12-05T03:23:43.006Z,48.53
2022-12-05T03:25:05.785Z,47.72
2022-12-05T03:26:38.256Z,49.40
2022-12-05T03:29:31.450Z,45.35
2022-12-05T03:30:55.760Z,49.30
2022-12-05T03:32:24.242Z,46.70
2022-12-05T03:33:50.906Z,46.15
2022-12-05T03:35:19.328Z,46.42
2022-12-05T03:36:46.267Z,46.75
2022-12-05T03:38:12.717Z,45.33
2022-12-05T03:39:43.579Z,44.90
2022-12-05T03:41:11.037Z,46.05
2022-12-05T03:42:36.187Z,44.78
2022-12-05T03:44:02.644Z,46.10
2022-12-05T03:45:31.183Z,46.80
2022-12-05T03:46:59.397Z,44.17
2022-12-05T03:48:31.378Z,44.22
2022-12-05T03:49:58.792Z,42.50
2022-12-05T03:51:24.666Z,42.83
2022-12-05T03:53:18.751Z,43.92
2022-12-05T03:54:41.112Z,42.25
2022-12-05T03:56:11.066Z,42.38
2022-12-05T03:57:38.672Z,42.42
2022-12-05T03:59:09.469Z,43.25
2022-12-05T04:00:36.350Z,41.80
2022-12-05T04:02:02.849Z,42.28
2022-12-05T04:03:39.909Z,41.53
2022-12-05T04:05:09.552Z,40.55
2022-12-05T04:06:35.243Z,41.30
2022-12-05T04:08:00.797Z,41.80
2022-12-05T04:09:27.811Z,42.38
2022-12-05T04:10:54.784Z,42.75
2022-12-05T04:12:30.001Z,40.10
2022-12-05T04:13:57.634Z,43.65
2022-12-05T04:15:23.428Z,41.70
2022-12-05T04:17:06.693Z,44.75
2022-12-05T04:18:29.295Z,40.15
2022-12-05T04:20:19.303Z,42.08
2022-12-05T04:21:46.774Z,41.55
2022-12-05T04:23:09.404Z,43.08
2022-12-05T04:24:51.604Z,41.65
2022-12-05T04:26:23.219Z,38.30
2022-12-05T04:27:52.892Z,42.85
2022-12-05T04:29:25.430Z,44.55
2022-12-05T04:30:51.529Z,42.95
2022-12-05T04:32:14.770Z,41.88
2022-12-05T04:33:43.491Z,42.58
2022-12-05T04:35:12.679Z,40.15
2022-12-05T04:36:38.787Z,46.30
2022-12-05T04:38:06.393Z,43.42
2022-12-05T04:39:33.941Z,43.72
2022-12-05T04:41:01.964Z,41.88
2022-12-05T04:42:29.200Z,40.15
2022-12-05T04:43:53.630Z,41.58
2022-12-05T04:45:18.246Z,39.83
2022-12-05T04:46:43.238Z,41.92
2022-12-05T04:48:11.482Z,39.25
2022-12-05T04:49:35.205Z,43.22
2022-12-05T04:50:59.620Z,42.17
2022-12-05T04:52:23.033Z,41.85
2022-12-05T04:53:48.009Z,44.47
2022-12-05T04:55:12.702Z,40.42
2022-12-05T04:56:38.089Z,42.42
2022-12-05T04:58:06.724Z,44.65
2022-12-05T04:59:28.593Z,43.25
2022-12-05T05:00:57.503Z,43.30
2022-12-05T05:02:23.283Z,42.58
2022-12-05T05:03:51.843Z,43.58
2022-12-05T05:05:17.255Z,43.22
2022-12-05T05:06:39.660Z,41.75
2022-12-05T05:08:02.170Z,43.42
2022-12-05T05:09:24.459Z,41.53
2022-12-05T05:10:57.112Z,41.92
2022-12-05T05:12:19.507Z,45.78
2022-12-05T05:13:40.869Z,44.20
2022-12-05T05:15:03.089Z,44.28
2022-12-05T05:16:27.377Z,45.33
2022-12-05T05:17:49.411Z,43.67
2022-12-05T05:19:12.551Z,41.25
2022-12-05T05:20:33.439Z,43.85
2022-12-05T05:21:55.207Z,42.28
2022-12-05T05:23:16.243Z,43.35
2022-12-05T05:24:39.577Z,43.38
2022-12-05T05:26:01.340Z,42.28
2022-12-05T05:27:22.092Z,44.75
2022-12-05T05:28:44.542Z,43.13
2022-12-05T05:30:08.023Z,42.70
2022-12-05T05:31:29.124Z,44.42
2022-12-05T05:32:51.152Z,43.10
2022-12-05T05:34:13.500Z,42.85
2022-12-05T05:35:37.617Z,45.13
2022-12-05T05:36:59.622Z,47.30
2022-12-05T05:38:21.703Z,44.80
2022-12-05T05:39:45.294Z,44.35
2022-12-05T05:41:07.686Z,44.85
2022-12-05T05:42:30.513Z,44.75
2022-12-05T05:43:53.619Z,43.40
2022-12-05T05:45:16.937Z,44.67
2022-12-05T05:46:39.550Z,42.70
2022-12-05T05:48:01.694Z,44.13
2022-12-05T05:49:23.870Z,43.75
2022-12-05T05:50:44.993Z,42.15
2022-12-05T05:52:08.880Z,42.72
2022-12-05T05:53:33.958Z,44.97
2022-12-05T05:54:57.140Z,44.50
2022-12-05T05:56:22.000Z,40.45
2022-12-05T05:57:44.288Z,45.25
2022-12-05T05:59:06.827Z,46.45
2022-12-05T06:00:28.548Z,43.78
2022-12-05T06:01:50.820Z,42.42
2022-12-05T06:03:13.141Z,44.00
2022-12-05T06:04:36.930Z,48.22
2022-12-05T06:05:59.572Z,47.55
2022-12-05T06:07:21.508Z,44.60
2022-12-05T06:08:45.845Z,48.40
2022-12-05T06:10:10.386Z,45.75
2022-12-05T06:11:35.619Z,47.70
2022-12-05T06:13:12.644Z,49.95
2022-12-05T06:14:37.309Z,50.20
2022-12-05T06:16:09.646Z,50.80
2022-12-05T06:17:56.042Z,48.58
2022-12-05T06:19:19.740Z,48.63
2022-12-05T06:20:42.080Z,50.55
2022-12-05T06:22:06.366Z,50.33
2022-12-05T06:23:29.542Z,50.97
2022-12-05T06:24:51.485Z,51.20
2022-12-05T06:26:16.311Z,52.33
2022-12-05T06:27:38.629Z,50.63
2022-12-05T06:29:00.893Z,51.97
2022-12-05T06:30:23.129Z,52.40
2022-12-05T06:31:48.365Z,50.33
2022-12-05T06:33:11.276Z,51.88
2022-12-05T06:34:33.276Z,51.45
2022-12-05T06:36:04.665Z,52.28
2022-12-05T06:37:26.783Z,48.58
2022-12-05T06:38:51.834Z,50.13
2022-12-05T06:40:14.472Z,52.17
2022-12-05T06:41:39.706Z,49.30
2022-12-05T06:43:01.789Z,50.47
2022-12-05T06:44:27.027Z,48.10
2022-12-05T06:45:51.730Z,45.55
2022-12-05T06:47:13.746Z,42.85
2022-12-05T06:48:34.870Z,46.25
2022-12-05T06:49:59.871Z,43.60
2022-12-05T06:51:22.129Z,44.00
2022-12-05T06:52:44.402Z,44.50
2022-12-05T06:55:28.821Z,45.42
2022-12-05T06:56:52.464Z,47.67
2022-12-05T06:58:13.639Z,44.75
2022-12-05T06:59:35.472Z,47.25
2022-12-05T07:01:15.287Z,43.33
2022-12-05T07:02:36.355Z,41.25
2022-12-05T07:04:03.283Z,42.20
2022-12-05T07:05:25.380Z,42.50
2022-12-05T07:06:50.959Z,42.05
2022-12-05T07:08:12.577Z,42.28
2022-12-05T07:09:53.984Z,39.72
2022-12-05T07:11:15.009Z,39.10
2022-12-05T07:12:40.641Z,39.80
2022-12-05T07:14:10.392Z,39.42
2022-12-05T07:15:41.361Z,37.70
2022-12-05T07:17:03.278Z,38.25
2022-12-05T07:18:25.510Z,37.38
2022-12-05T07:19:49.683Z,37.10
2022-12-05T07:21:15.775Z,39.03
2022-12-05T07:22:38.722Z,37.35
2022-12-05T07:24:00.965Z,36.10
2022-12-05T07:25:23.067Z,37.42
2022-12-05T07:26:44.951Z,37.63
2022-12-05T07:28:08.448Z,35.38
2022-12-05T07:29:30.671Z,36.67
2022-12-05T07:31:01.562Z,38.15
2022-12-05T07:32:23.566Z,37.63
2022-12-05T07:33:48.710Z,37.50
2022-12-05T07:35:11.104Z,36.45
2022-12-05T07:36:33.230Z,38.30
2022-12-05T07:37:55.245Z,37.63
2022-12-05T07:40:39.313Z,35.28
2022-12-05T07:42:03.920Z,37.03
2022-12-05T07:43:27.314Z,38.17
2022-12-05T07:44:49.379Z,39.38
2022-12-05T07:46:12.723Z,41.85
2022-12-05T07:47:35.036Z,37.63
2022-12-05T07:50:19.205Z,41.13
2022-12-05T07:51:41.493Z,38.95
2022-12-05T07:53:03.804Z,38.53
2022-12-05T07:54:25.919Z,38.85
2022-12-05T07:57:08.705Z,36.78
2022-12-05T07:58:33.476Z,37.17
2022-12-05T07:59:55.778Z,40.50
2022-12-05T08:01:20.103Z,39.72
2022-12-05T08:02:42.013Z,40.33
2022-12-05T08:05:25.755Z,41.67
2022-12-05T08:06:47.818Z,42.17
2022-12-05T08:08:10.050Z,40.75
2022-12-05T08:09:32.256Z,42.67
2022-12-05T08:10:53.207Z,44.45
2022-12-05T08:12:14.878Z,43.90
2022-12-05T08:13:41.746Z,43.08
2022-12-05T08:15:04.131Z,41.03
2022-12-05T08:16:29.713Z,43.83
2022-12-05T08:17:52.345Z,46.25
2022-12-05T08:19:15.620Z,46.63
2022-12-05T08:20:37.425Z,42.42
2022-12-05T08:22:02.382Z,46.25
2022-12-05T08:23:24.720Z,46.40
2022-12-05T08:24:49.588Z,49.65
2022-12-05T08:26:20.723Z,45.10
2022-12-05T08:27:45.839Z,49.10
2022-12-05T08:29:11.668Z,48.05
2022-12-05T08:30:35.136Z,47.40
2022-12-05T08:31:57.493Z,49.70
2022-12-05T08:33:22.360Z,45.25
2022-12-05T08:34:47.677Z,47.33
2022-12-05T08:36:17.128Z,47.88
2022-12-05T08:37:50.784Z,45.88
2022-12-05T08:39:20.985Z,46.40
2022-12-05T08:43:16.796Z,45.97
2022-12-05T08:44:44.855Z,45.35
2022-12-05T09:15:47.626Z,49.53
2022-12-05T09:17:13.068Z,49.22
2022-12-05T09:18:39.372Z,49.90
2022-12-05T09:20:05.196Z,47.58
2022-12-05T09:21:33.084Z,49.15
2022-12-05T09:23:00.865Z,47.65
2022-12-05T09:24:33.759Z,49.10
2022-12-05T09:25:56.399Z,48.70
2022-12-05T09:27:18.803Z,47.42
2022-12-05T09:28:41.772Z,46.85
2022-12-05T09:30:05.707Z,47.63
2022-12-05T09:31:33.669Z,46.50
2022-12-05T09:32:57.050Z,43.13
2022-12-05T09:34:20.519Z,44.70
2022-12-05T09:35:42.658Z,45.95
2022-12-05T09:37:30.423Z,47.92
2022-12-05T09:39:03.742Z,48.50
2022-12-05T09:40:29.337Z,47.58
2022-12-05T09:42:25.739Z,45.70
2022-12-05T09:43:57.750Z,45.83
2022-12-05T09:45:25.612Z,50.75
2022-12-05T09:46:57.249Z,49.55
2022-12-05T09:48:24.476Z,48.40
2022-12-05T09:49:54.839Z,49.97
2022-12-05T09:51:17.880Z,50.88
2022-12-05T09:52:45.514Z,49.63
2022-12-05T09:54:10.076Z,50.42
2022-12-05T09:55:42.679Z,50.05
2022-12-05T09:57:07.722Z,48.80
2022-12-05T09:58:43.375Z,51.53
2022-12-05T10:00:11.299Z,50.58
2022-12-05T10:01:41.871Z,48.15
2022-12-05T10:03:20.964Z,48.35
2022-12-05T10:05:00.685Z,51.42
2022-12-05T10:06:27.694Z,51.47
2022-12-05T10:07:57.927Z,50.83
2022-12-05T10:09:39.824Z,49.08
2022-12-05T10:11:04.847Z,49.30
2022-12-05T10:12:44.491Z,48.97
2022-12-05T10:14:14.732Z,51.35
2022-12-05T10:15:45.570Z,52.20
2022-12-05T10:17:16.715Z,53.22
2022-12-05T10:18:45.560Z,54.90
2022-12-05T10:20:15.188Z,54.25
2022-12-05T10:21:41.842Z,53.97
2022-12-05T10:23:08.060Z,53.40
2022-12-05T10:24:35.300Z,55.60
2022-12-05T10:26:00.975Z,51.67
2022-12-05T10:27:34.124Z,56.22
2022-12-05T10:29:05.558Z,56.10
2022-12-05T10:30:31.413Z,54.28
2022-12-05T10:32:05.385Z,56.03
2022-12-05T10:33:46.716Z,56.97
2022-12-05T10:35:29.462Z,55.83
2022-12-05T10:36:58.461Z,60.33
2022-12-05T10:38:27.078Z,62.58
2022-12-05T10:39:55.605Z,59.78
2022-12-05T10:41:19.753Z,57.17
2022-12-05T10:43:19.794Z,58.45
2022-12-05T10:44:42.355Z,58.45
2022-12-05T10:46:31.853Z,59.63
2022-12-05T10:47:57.725Z,57.10
2022-12-05T10:49:20.965Z,58.17
2022-12-05T10:50:48.674Z,58.60
2022-12-05T10:52:11.952Z,57.05
2022-12-05T10:53:40.302Z,60.67
2022-12-05T10:55:06.872Z,58.03
2022-12-05T10:56:44.634Z,61.45
2022-12-05T10:58:17.639Z,55.90
2022-12-05T10:59:48.232Z,59.17
2022-12-05T11:01:17.548Z,56.90
2022-12-05T11:02:41.901Z,59.42
2022-12-05T11:04:13.918Z,58.10
2022-12-05T11:05:37.292Z,56.80
2022-12-05T11:07:05.917Z,58.72
2022-12-05T11:08:56.033Z,58.97
2022-12-05T11:10:26.720Z,56.03
2022-12-05T11:12:05.475Z,55.40
2022-12-05T11:13:27.580Z,55.28
2022-12-05T11:15:02.171Z,57.40
2022-12-05T11:16:26.884Z,58.22
2022-12-05T11:17:49.850Z,56.72
2022-12-05T11:19:26.304Z,58.67
2022-12-05T11:20:48.095Z,56.78
2022-12-05T11:23:40.617Z,51.53
2022-12-05T11:25:03.342Z,53.75
2022-12-05T11:26:37.012Z,52.20
2022-12-05T11:28:01.594Z,49.17
2022-12-05T11:29:36.710Z,50.22
2022-12-05T11:31:00.600Z,52.20
2022-12-05T11:32:25.857Z,52.47
2022-12-05T11:34:02.756Z,53.83
2022-12-05T11:35:28.127Z,51.03
2022-12-05T11:36:55.823Z,52.97
2022-12-05T11:38:25.615Z,50.20
2022-12-05T11:39:47.444Z,49.17
2022-12-05T11:43:04.287Z,50.80
2022-12-05T11:44:41.071Z,50.05
2022-12-05T11:46:14.835Z,51.88
2022-12-05T11:47:54.968Z,53.50
2022-12-05T11:49:30.811Z,54.22
2022-12-05T11:51:05.533Z,55.95
2022-12-05T11:52:47.288Z,56.50
2022-12-05T11:56:38.516Z,56.17
2022-12-05T11:58:39.355Z,63.45
2022-12-05T12:00:27.200Z,60.60
2022-12-05T12:02:10.567Z,59.10
2022-12-05T12:03:54.048Z,59.67
2022-12-05T12:05:34.101Z,58.97
2022-12-05T12:07:25.175Z,61.15
2022-12-05T12:09:07.701Z,53.53
2022-12-05T12:10:44.309Z,57.40
2022-12-05T12:12:17.740Z,55.75
2022-12-05T12:13:59.546Z,52.78
2022-12-05T12:15:48.106Z,41.28
2022-12-05T12:17:33.148Z,53.03
2022-12-05T12:19:15.510Z,55.67
2022-12-05T12:20:55.647Z,55.42
2022-12-05T12:22:45.610Z,52.53
2022-12-05T12:24:48.252Z,55.88
2022-12-05T12:29:23.305Z,55.53
2022-12-05T12:31:21.086Z,54.15
2022-12-05T12:32:56.908Z,53.65
2022-12-05T12:34:48.815Z,53.33
2022-12-05T12:36:26.059Z,53.75
2022-12-05T12:38:09.749Z,55.17
2022-12-05T12:41:11.437Z,57.53
2022-12-05T12:43:51.607Z,55.65
2022-12-05T12:45:42.414Z,58.30
2022-12-05T12:47:14.405Z,54.35
2022-12-05T12:48:54.991Z,56.23
2022-12-05T12:50:22.896Z,57.00
2022-12-05T12:51:55.079Z,54.90
2022-12-05T12:53:46.252Z,55.15
2022-12-05T12:55:23.440Z,59.38
2022-12-05T12:56:57.786Z,55.42
2022-12-05T12:58:34.459Z,56.80
2022-12-05T13:00:05.627Z,54.45
2022-12-05T13:01:43.713Z,55.57
2022-12-05T13:03:13.578Z,57.78
2022-12-05T13:04:42.344Z,57.88
2022-12-05T13:06:17.767Z,60.10
2022-12-05T13:07:46.227Z,59.78
2022-12-05T13:09:13.343Z,63.00
2022-12-05T13:10:40.852Z,59.45
2022-12-05T13:12:09.532Z,59.80
2022-12-05T13:13:43.117Z,56.33
2022-12-05T13:15:15.260Z,59.00
2022-12-05T13:16:46.253Z,56.35
2022-12-05T13:18:16.245Z,58.92
2022-12-05T13:19:43.683Z,60.55
2022-12-05T13:21:09.792Z,60.33
2022-12-05T13:22:33.235Z,60.13
2022-12-05T13:23:59.412Z,62.97
2022-12-05T13:25:25.772Z,61.17
2022-12-05T13:26:51.089Z,61.42
2022-12-05T13:28:30.491Z,59.92
2022-12-05T13:29:58.136Z,60.05
2022-12-05T13:31:21.888Z,66.57
2022-12-05T13:32:46.130Z,59.72
2022-12-05T13:34:29.329Z,59.75
2022-12-05T13:36:17.218Z,64.18
2022-12-05T13:38:06.264Z,61.75
2022-12-05T13:39:45.868Z,60.17
2022-12-05T13:41:26.717Z,63.17
2022-12-05T13:43:02.925Z,60.05
2022-12-05T13:44:34.649Z,57.03
2022-12-05T13:46:05.582Z,58.30
2022-12-05T13:47:37.329Z,58.17
2022-12-05T13:49:08.830Z,63.03
2022-12-05T13:50:43.380Z,65.30
2022-12-05T13:52:14.987Z,64.65
2022-12-05T13:53:45.575Z,66.22
2022-12-05T13:55:25.297Z,61.78
2022-12-05T13:56:52.511Z,80.38
2022-12-05T13:58:42.484Z,68.97
2022-12-05T14:00:23.254Z,60.20
2022-12-05T14:01:56.074Z,67.18
2022-12-05T14:03:51.461Z,74.97
2022-12-05T14:05:58.321Z,62.92
2022-12-05T14:07:46.335Z,57.50
2022-12-05T14:09:30.011Z,58.83
2022-12-05T14:11:12.920Z,54.17
2022-12-05T14:12:55.381Z,54.25
2022-12-05T14:15:02.156Z,54.28
2022-12-05T14:16:49.792Z,53.75
2022-12-05T14:18:17.625Z,52.10
2022-12-05T14:19:55.491Z,55.33
2022-12-05T14:21:23.776Z,54.22
2022-12-05T14:23:19.251Z,54.13
2022-12-05T14:24:53.483Z,112.38
2022-12-05T14:26:41.676Z,66.88
2022-12-05T14:28:24.361Z,106.40
2022-12-05T14:30:04.648Z,58.45
2022-12-05T14:32:02.413Z,59.35
2022-12-05T14:33:26.243Z,58.22
2022-12-05T14:35:16.901Z,59.78
2022-12-05T14:36:44.604Z,55.50
2022-12-05T14:40:06.296Z,56.47
2022-12-05T14:41:45.662Z,56.40
2022-12-05T14:43:18.531Z,55.17
2022-12-05T14:44:49.720Z,59.65
2022-12-05T14:46:20.247Z,57.25
2022-12-05T14:47:52.967Z,56.97
2022-12-05T14:49:51.922Z,56.92
2022-12-05T14:51:57.387Z,57.22
2022-12-05T14:53:44.097Z,56.83
2022-12-05T14:55:14.370Z,57.03
2022-12-05T14:56:44.713Z,59.53
2022-12-05T14:58:19.147Z,57.40
2022-12-05T14:59:55.238Z,60.15
2022-12-05T15:01:21.652Z,60.03
2022-12-05T15:02:48.411Z,60.08
2022-12-05T15:04:26.431Z,62.08
2022-12-05T15:05:49.977Z,59.60
2022-12-05T15:07:21.336Z,56.03
2022-12-05T15:08:51.414Z,57.70
2022-12-05T15:10:34.080Z,60.33
2022-12-05T15:13:39.652Z,57.40
2022-12-05T15:24:36.640Z,60.03
2022-12-05T15:58:13.943Z,53.97
2022-12-05T16:50:34.285Z,47.13
2022-12-05T16:55:50.779Z,54.80
2022-12-05T16:57:38.510Z,50.90
2022-12-05T17:00:14.861Z,50.67
2022-12-05T17:10:12.747Z,48.28
2022-12-05T17:14:51.420Z,44.50
2022-12-05T17:18:26.568Z,44.75
2022-12-05T17:19:57.156Z,43.08
2022-12-05T17:21:22.697Z,46.47
2022-12-05T17:22:46.785Z,47.63
2022-12-05T17:24:11.661Z,46.78
2022-12-05T17:25:39.981Z,44.15
2022-12-05T17:27:02.517Z,45.95
2022-12-05T17:28:24.556Z,44.17
2022-12-05T17:30:03.382Z,44.72
2022-12-05T17:31:42.980Z,43.85
2022-12-05T17:33:07.599Z,41.58
2022-12-05T17:35:09.618Z,42.90
2022-12-05T17:36:48.565Z,42.97
2022-12-05T17:42:10.757Z,48.38
2022-12-05T17:43:55.617Z,45.75
2022-12-05T17:45:48.192Z,45.63
2022-12-05T17:47:13.936Z,44.58
2022-12-05T17:48:37.013Z,45.20
2022-12-05T17:50:07.941Z,47.33
2022-12-05T17:51:31.151Z,45.97
2022-12-05T17:53:02.791Z,47.35
2022-12-05T17:54:28.115Z,44.38
2022-12-05T17:55:52.385Z,47.28
2022-12-05T17:57:21.568Z,46.15
2022-12-05T17:58:44.729Z,43.97
2022-12-05T18:00:08.284Z,45.08
2022-12-05T18:01:31.699Z,44.70
2022-12-05T18:02:53.828Z,45.08
2022-12-05T18:04:21.409Z,44.53
2022-12-05T18:05:45.446Z,42.45
2022-12-05T18:07:33.355Z,44.13
2022-12-05T18:08:55.606Z,42.92
2022-12-05T18:10:20.037Z,43.45
2022-12-05T18:11:44.688Z,44.67
2022-12-05T18:13:13.187Z,42.30
2022-12-05T18:14:36.504Z,42.88
2022-12-05T18:16:01.510Z,41.05
2022-12-05T18:17:34.508Z,42.42
2022-12-05T18:19:05.744Z,41.53
2022-12-05T18:20:36.128Z,43.28
2022-12-05T18:21:58.708Z,43.00
2022-12-05T18:23:40.856Z,42.17
2022-12-05T18:25:06.311Z,40.38
2022-12-05T18:26:38.419Z,40.33
2022-12-05T18:28:04.375Z,41.15
2022-12-05T18:29:31.148Z,41.72
2022-12-05T18:31:05.089Z,43.42
2022-12-05T18:32:33.370Z,42.45
2022-12-05T18:34:05.755Z,44.25
2022-12-05T18:37:22.507Z,44.33
2022-12-05T18:38:45.787Z,43.90
2022-12-05T18:40:13.379Z,43.58
2022-12-05T18:41:37.074Z,47.33
2022-12-05T18:42:59.309Z,44.85
2022-12-05T18:44:42.570Z,47.10
2022-12-05T18:46:16.401Z,46.97
2022-12-05T18:47:40.098Z,47.38
2022-12-05T18:49:03.625Z,46.38
2022-12-05T18:50:29.990Z,45.35
2022-12-05T18:51:53.779Z,47.40
2022-12-05T18:53:18.688Z,46.95
2022-12-05T18:54:40.597Z,47.05
2022-12-05T18:56:21.776Z,47.28
2022-12-05T18:57:51.211Z,48.42
2022-12-05T18:59:18.620Z,46.72
2022-12-05T19:00:40.710Z,48.08
2022-12-05T19:05:11.992Z,45.13
2022-12-05T19:06:42.945Z,47.65
2022-12-05T19:08:08.954Z,45.50
2022-12-05T19:09:33.447Z,46.30
2022-12-05T19:11:07.733Z,46.00
2022-12-05T19:12:30.322Z,47.42
2022-12-05T19:13:56.606Z,47.78
2022-12-05T19:15:21.196Z,48.55
2022-12-05T19:16:45.080Z,48.33
2022-12-05T19:18:10.515Z,48.60
2022-12-05T19:19:37.131Z,49.92
2022-12-05T19:21:02.957Z,50.45
2022-12-05T19:22:27.367Z,53.70
2022-12-05T19:23:49.656Z,49.33
2022-12-05T19:25:11.802Z,55.08
2022-12-05T19:26:36.255Z,56.20
2022-12-05T19:27:58.696Z,53.40
2022-12-05T19:29:21.934Z,50.92
2022-12-05T19:30:47.108Z,49.60
2022-12-05T19:32:12.441Z,49.28
2022-12-05T19:33:39.499Z,47.05
2022-12-05T19:35:03.260Z,47.25
2022-12-05T19:36:32.124Z,45.75
2022-12-05T19:37:56.270Z,47.42
2022-12-05T19:39:26.666Z,48.53
2022-12-05T19:40:57.290Z,51.13
2022-12-05T19:42:19.956Z,51.50
2022-12-05T19:43:41.657Z,47.75
2022-12-05T19:46:36.752Z,44.78
2022-12-05T19:48:01.671Z,45.13
2022-12-05T19:49:26.002Z,45.00
2022-12-05T19:50:59.592Z,43.70
2022-12-05T19:52:24.821Z,43.65
2022-12-05T19:53:46.401Z,43.47
2022-12-05T19:55:11.968Z,42.55
2022-12-05T19:56:37.226Z,44.45
2022-12-05T19:57:59.558Z,44.53
2022-12-05T19:59:23.122Z,43.92
2022-12-05T20:00:46.803Z,44.30
2022-12-05T20:02:13.454Z,42.55
2022-12-05T20:03:41.777Z,44.72
2022-12-05T20:05:18.695Z,43.72
2022-12-05T20:06:51.692Z,42.67
2022-12-05T20:08:14.921Z,41.30
2022-12-05T20:09:44.485Z,42.53
2022-12-05T20:11:19.175Z,43.70
2022-12-05T20:12:41.388Z,43.00
2022-12-05T20:14:09.037Z,44.03
2022-12-05T20:15:31.323Z,42.92
2022-12-05T20:16:56.489Z,42.47
2022-12-05T20:18:19.894Z,43.08
2022-12-05T20:19:44.592Z,43.67
2022-12-05T20:21:13.225Z,42.15
2022-12-05T20:22:39.467Z,43.70
2022-12-05T20:24:05.685Z,42.70
2022-12-05T20:25:28.485Z,42.50
2022-12-05T20:26:51.516Z,44.33
2022-12-05T20:28:16.138Z,41.72
2022-12-05T20:29:40.580Z,43.17
2022-12-05T20:31:07.707Z,40.90
2022-12-05T20:32:30.547Z,42.15
2022-12-05T20:33:57.463Z,42.40
2022-12-05T20:35:24.011Z,42.70
2022-12-05T20:36:46.816Z,42.95
2022-12-05T20:38:10.849Z,43.03
2022-12-05T20:39:35.958Z,44.22
2022-12-05T20:41:08.694Z,43.63
2022-12-05T20:42:31.240Z,45.58
2022-12-05T20:43:56.082Z,44.90
2022-12-05T20:45:22.960Z,45.35
2022-12-05T20:46:50.390Z,42.13
2022-12-05T20:48:14.562Z,43.60
2022-12-05T20:49:36.827Z,45.97
2022-12-05T20:51:05.652Z,43.22
2022-12-05T20:52:27.907Z,40.72
2022-12-05T20:53:52.256Z,41.47
2022-12-05T20:55:17.050Z,42.15
2022-12-05T20:56:39.746Z,43.63
2022-12-05T20:58:05.363Z,43.58
2022-12-05T20:59:27.455Z,42.38
2022-12-05T21:00:49.958Z,41.00
2022-12-05T21:02:12.353Z,40.13
2022-12-05T21:03:36.523Z,40.22
2022-12-05T21:04:58.678Z,41.05
2022-12-05T21:06:26.802Z,42.88
2022-12-05T21:07:49.062Z,42.20
2022-12-05T21:09:26.554Z,38.28
2022-12-05T21:10:51.197Z,39.92
2022-12-05T21:12:13.645Z,39.80
2022-12-05T21:13:36.523Z,39.47
2022-12-05T21:14:58.678Z,43.92
2022-12-05T21:16:23.206Z,43.97
2022-12-05T21:17:45.530Z,46.75
2022-12-05T21:20:29.273Z,41.17
2022-12-05T21:21:53.889Z,44.83
2022-12-05T21:23:15.971Z,48.03
2022-12-05T21:24:42.348Z,50.15
2022-12-05T21:26:12.775Z,57.22
2022-12-05T21:27:43.633Z,62.03
2022-12-05T21:29:07.253Z,63.53
2022-12-05T21:30:29.670Z,60.30
2022-12-05T21:31:53.002Z,64.32
2022-12-05T21:33:17.230Z,64.00
2022-12-05T21:34:40.081Z,55.08
2022-12-05T21:36:01.198Z,58.72
2022-12-05T21:37:24.783Z,51.67
2022-12-05T21:38:52.219Z,54.53
2022-12-05T21:40:19.370Z,49.28
2022-12-05T21:41:41.672Z,49.25
2022-12-05T21:44:26.151Z,45.97
2022-12-05T21:45:53.967Z,43.35
2022-12-05T21:47:16.221Z,42.15
2022-12-05T21:48:38.406Z,40.47
2022-12-05T21:50:01.142Z,43.08
2022-12-05T21:51:23.957Z,44.80
2022-12-05T21:52:46.142Z,43.58
2022-12-05T21:54:11.593Z,42.22
2022-12-05T21:55:34.238Z,42.60
2022-12-05T21:56:56.705Z,43.13
2022-12-05T21:58:18.963Z,41.15
2022-12-05T21:59:40.110Z,41.67
2022-12-05T22:01:02.586Z,40.13
2022-12-05T22:02:27.855Z,41.05
2022-12-05T22:03:52.739Z,39.10
2022-12-05T22:05:13.558Z,39.58
2022-12-05T22:06:35.594Z,39.50